createdAt,value
2018-06-03T00:01:04.705Z,55.90
2018-06-03T00:03:32.228Z,56.10
2018-06-03T00:05:59.837Z,56.10
2018-06-03T00:08:27.390Z,56.20
2018-06-03T00:10:59.875Z,56.20
2018-06-03T00:13:27.489Z,56.10
2018-06-03T00:15:55.140Z,56.10
2018-06-03T00:18:23.512Z,56.50
2018-06-03T00:21:03.653Z,56.70
2018-06-03T00:23:31.725Z,56.70
2018-06-03T00:25:59.252Z,56.90
2018-06-03T00:28:26.805Z,57.10
2018-06-03T00:30:54.367Z,57.30
2018-06-03T00:33:22.719Z,57.70
2018-06-03T00:36:02.220Z,57.70
2018-06-03T00:38:29.849Z,57.60
2018-06-03T00:40:58.266Z,57.70
2018-06-03T00:43:25.820Z,57.70
2018-06-03T00:45:53.381Z,57.80
2018-06-03T00:48:20.901Z,58.00
2018-06-03T00:50:48.461Z,58.30
2018-06-03T00:53:15.978Z,58.70
2018-06-03T00:55:43.567Z,58.90
2018-06-03T00:58:11.108Z,59.00
2018-06-03T01:00:39.392Z,59.00
2018-06-03T01:03:07.744Z,58.90
2018-06-03T01:05:35.295Z,58.90
2018-06-03T01:08:02.866Z,59.00
2018-06-03T01:10:30.497Z,58.70
2018-06-03T01:12:58.032Z,58.60
2018-06-03T01:15:25.664Z,58.80
2018-06-03T01:17:53.953Z,58.60
2018-06-03T01:20:21.487Z,58.60
2018-06-03T01:22:49.049Z,58.40
2018-06-03T01:25:17.421Z,57.90
2018-06-03T01:27:44.969Z,57.90
2018-06-03T01:30:13.018Z,57.70
2018-06-03T01:32:40.556Z,57.40
2018-06-03T01:35:08.077Z,57.10
2018-06-03T01:37:36.413Z,56.60
2018-06-03T01:40:04.648Z,56.60
2018-06-03T01:42:32.198Z,56.60
2018-06-03T01:44:59.721Z,56.60
2018-06-03T01:47:27.344Z,56.50
2018-06-03T01:49:54.901Z,56.50
2018-06-03T01:52:22.472Z,56.40
2018-06-03T01:54:50.074Z,55.80
2018-06-03T01:57:17.693Z,56.00
2018-06-03T01:59:45.215Z,55.80
2018-06-03T02:02:13.572Z,55.80
2018-06-03T02:04:41.098Z,55.70
2018-06-03T02:07:09.391Z,55.70
2018-06-03T02:09:36.916Z,55.50
2018-06-03T02:12:05.210Z,56.10
2018-06-03T02:14:32.880Z,55.40
2018-06-03T02:17:00.405Z,55.60
2018-06-03T02:19:28.710Z,55.90
2018-06-03T02:21:56.232Z,55.90
2018-06-03T02:24:23.811Z,56.10
2018-06-03T02:26:52.097Z,56.40
2018-06-03T02:29:19.633Z,56.40
2018-06-03T02:31:47.981Z,56.30
2018-06-03T02:34:15.493Z,56.30
2018-06-03T02:36:43.056Z,56.50
2018-06-03T02:39:10.693Z,56.40
2018-06-03T02:41:39.701Z,56.80
2018-06-03T02:44:08.034Z,56.90
2018-06-03T02:46:35.609Z,56.80
2018-06-03T02:49:03.180Z,57.10
2018-06-03T02:51:30.725Z,57.30
2018-06-03T02:53:58.281Z,57.30
2018-06-03T02:56:25.850Z,57.60
2018-06-03T02:58:53.374Z,57.80
2018-06-03T03:01:20.928Z,57.90
2018-06-03T03:03:48.446Z,58.50
2018-06-03T03:06:16.734Z,59.00
2018-06-03T03:08:45.098Z,59.00
2018-06-03T03:11:13.404Z,59.10
2018-06-03T03:13:40.967Z,59.10
2018-06-03T03:16:08.492Z,59.30
2018-06-03T03:18:36.045Z,59.50
2018-06-03T03:21:03.571Z,59.60
2018-06-03T03:23:34.265Z,59.60
2018-06-03T03:26:02.572Z,59.60
2018-06-03T03:28:30.121Z,59.50
2018-06-03T03:30:57.636Z,59.80
2018-06-03T03:33:25.197Z,59.60
2018-06-03T03:35:52.726Z,59.60
2018-06-03T03:38:20.277Z,59.60
2018-06-03T03:40:47.802Z,59.60
2018-06-03T03:43:16.174Z,59.80
2018-06-03T03:45:44.497Z,59.70
2018-06-03T03:48:12.061Z,59.70
2018-06-03T03:50:39.617Z,59.90
2018-06-03T03:53:07.143Z,59.90
2018-06-03T03:55:35.905Z,60.30
2018-06-03T03:58:03.483Z,60.30
2018-06-03T04:00:31.000Z,60.50
2018-06-03T04:02:58.520Z,60.60
2018-06-03T04:05:26.084Z,60.70
2018-06-03T04:07:53.603Z,60.70
2018-06-03T04:10:23.918Z,61.60
2018-06-03T04:12:51.590Z,60.70
2018-06-03T04:15:19.110Z,61.90
2018-06-03T04:17:46.664Z,61.50
2018-06-03T04:20:46.466Z,61.30
2018-06-03T04:23:15.122Z,61.20
2018-06-03T04:25:43.778Z,61.30
2018-06-03T04:28:12.444Z,61.90
2018-06-03T04:30:41.100Z,62.00
2018-06-03T04:33:09.742Z,62.20
2018-06-03T04:35:39.006Z,62.10
2018-06-03T04:38:08.638Z,62.40
2018-06-03T04:40:37.301Z,62.50
2018-06-03T04:43:05.991Z,62.40
2018-06-03T04:45:34.648Z,62.40
2018-06-03T04:48:03.264Z,62.60
2018-06-03T04:50:31.973Z,62.60
2018-06-03T04:53:00.640Z,62.80
2018-06-03T04:55:29.268Z,62.90
2018-06-03T04:57:57.927Z,63.00
2018-06-03T05:00:27.206Z,63.10
2018-06-03T05:02:55.829Z,63.20
2018-06-03T05:05:26.908Z,63.00
2018-06-03T05:07:55.616Z,63.00
2018-06-03T05:10:24.225Z,62.70
2018-06-03T05:12:52.831Z,62.60
2018-06-03T05:15:21.489Z,62.70
2018-06-03T05:17:50.672Z,62.40
2018-06-03T05:20:19.368Z,62.50
2018-06-03T05:22:48.067Z,62.60
2018-06-03T05:25:16.708Z,62.60
2018-06-03T05:27:45.365Z,62.20
2018-06-03T05:30:13.989Z,62.00
2018-06-03T05:32:42.662Z,61.90
2018-06-03T05:35:11.293Z,62.30
2018-06-03T05:37:39.960Z,62.60
2018-06-03T05:40:08.713Z,63.60
2018-06-03T05:45:10.053Z,62.30
2018-06-03T05:47:38.705Z,62.10
2018-06-03T05:50:07.366Z,62.20
2018-06-03T05:52:36.217Z,61.90
2018-06-03T05:55:04.908Z,61.90
2018-06-03T05:57:33.592Z,62.20
2018-06-03T06:00:02.954Z,61.90
2018-06-03T06:02:31.566Z,61.90
2018-06-03T06:07:28.490Z,61.50
2018-06-03T06:09:57.166Z,61.60
2018-06-03T06:12:25.820Z,61.40
2018-06-03T06:14:54.457Z,61.40
2018-06-03T06:17:23.067Z,61.60
2018-06-03T06:19:51.756Z,61.70
2018-06-03T06:22:20.417Z,61.90
2018-06-03T06:24:49.079Z,61.60
2018-06-03T06:27:17.762Z,61.70
2018-06-03T06:32:14.742Z,61.90
2018-06-03T06:34:43.478Z,62.30
2018-06-03T06:37:12.119Z,62.50
2018-06-03T06:39:40.796Z,62.40
2018-06-03T06:42:10.093Z,62.50
2018-06-03T06:44:38.790Z,62.40
2018-06-03T06:47:07.443Z,62.30
2018-06-03T06:52:04.385Z,62.20
2018-06-03T06:54:33.000Z,62.10
2018-06-03T06:57:01.653Z,61.90
2018-06-03T06:59:30.309Z,61.50
2018-06-03T07:01:58.979Z,61.30
2018-06-03T07:04:27.665Z,61.50
2018-06-03T07:06:57.111Z,61.40
2018-06-03T07:09:25.785Z,61.40
2018-06-03T07:11:54.531Z,61.30
2018-06-03T07:16:51.413Z,61.00
2018-06-03T07:19:20.046Z,60.90
2018-06-03T07:21:48.732Z,61.00
2018-06-03T07:24:17.396Z,60.60
2018-06-03T07:26:46.063Z,60.60
2018-06-03T07:29:14.678Z,60.60
2018-06-03T07:31:43.464Z,60.00
2018-06-03T07:34:13.945Z,59.80
2018-06-03T07:36:42.638Z,59.60
2018-06-03T07:39:11.276Z,60.00
2018-06-03T07:41:39.917Z,59.00
2018-06-03T07:44:08.649Z,58.80
2018-06-03T07:46:37.268Z,58.60
2018-06-03T07:51:34.277Z,58.80
2018-06-03T07:54:03.751Z,58.10
2018-06-03T07:56:32.377Z,58.30
2018-06-03T07:59:01.049Z,58.50
2018-06-03T08:01:29.691Z,58.70
2018-06-03T08:08:55.942Z,56.60
2018-06-03T08:11:24.614Z,56.30
2018-06-03T08:13:53.601Z,56.40
2018-06-03T08:16:22.693Z,56.40
2018-06-03T08:18:51.361Z,56.70
2018-06-03T08:21:19.998Z,56.80
2018-06-03T08:28:45.132Z,56.70
2018-06-03T08:31:13.804Z,56.80
2018-06-03T08:33:42.430Z,57.10
2018-06-03T08:36:11.153Z,56.90
2018-06-03T08:38:39.806Z,57.10
2018-06-03T08:41:08.467Z,57.60
2018-06-03T08:43:37.133Z,57.70
2018-06-03T08:46:05.805Z,57.80
2018-06-03T08:48:34.471Z,57.60
2018-06-03T08:51:03.167Z,57.40
2018-06-03T08:53:31.813Z,57.40
2018-06-03T08:56:00.477Z,57.70
2018-06-03T09:00:58.081Z,58.40
2018-06-03T09:03:26.760Z,58.80
2018-06-03T09:05:55.381Z,59.20
2018-06-03T09:08:24.192Z,59.30
2018-06-03T09:10:52.844Z,59.50
2018-06-03T09:13:21.514Z,59.50
2018-06-03T09:15:50.697Z,58.80
2018-06-03T09:20:47.772Z,58.30
2018-06-03T09:23:16.395Z,58.10
2018-06-03T09:25:45.110Z,57.50
2018-06-03T09:28:13.768Z,57.30
2018-06-03T09:30:42.458Z,56.40
2018-06-03T09:33:11.139Z,56.70
2018-06-03T09:35:39.816Z,56.50
2018-06-03T09:38:09.466Z,56.00
2018-06-03T09:40:38.118Z,55.60
2018-06-03T09:43:07.462Z,55.60
2018-06-03T09:45:36.125Z,55.20
2018-06-03T09:48:04.820Z,55.20
2018-06-03T09:50:33.507Z,55.00
2018-06-03T09:53:02.168Z,54.90
2018-06-03T09:55:30.827Z,55.20
2018-06-03T09:57:59.557Z,55.20
2018-06-03T10:00:28.329Z,53.40
2018-06-03T10:02:57.325Z,54.50
2018-06-03T10:05:26.111Z,54.60
2018-06-03T10:07:54.760Z,54.30
2018-06-03T10:10:23.385Z,54.90
2018-06-03T10:12:52.108Z,54.90
2018-06-03T10:15:20.734Z,55.10
2018-06-03T10:17:49.446Z,55.00
2018-06-03T10:20:18.189Z,54.80
2018-06-03T10:27:43.489Z,54.00
2018-06-03T10:30:12.176Z,53.80
2018-06-03T10:32:41.772Z,52.70
2018-06-03T10:35:10.941Z,52.50
2018-06-03T10:37:39.609Z,52.50
2018-06-03T10:42:39.158Z,52.20
2018-06-03T10:45:07.851Z,52.00
2018-06-03T10:47:36.753Z,51.70
2018-06-03T10:50:05.489Z,51.60
2018-06-03T10:57:30.704Z,48.90
2018-06-03T10:59:59.363Z,48.60
2018-06-03T11:02:28.059Z,47.90
2018-06-03T11:04:57.715Z,47.90
2018-06-03T11:09:54.624Z,49.40
2018-06-03T11:12:23.657Z,48.00
2018-06-03T11:14:52.304Z,45.70
2018-06-03T11:17:20.979Z,47.00
2018-06-03T11:19:49.693Z,46.20
2018-06-03T11:22:18.391Z,46.00
2018-06-03T11:24:47.039Z,45.40
2018-06-03T11:27:20.218Z,45.60
2018-06-03T11:29:48.889Z,46.60
2018-06-03T11:32:17.567Z,46.80
2018-06-03T11:37:14.486Z,45.30
2018-06-03T11:39:43.143Z,45.40
2018-06-03T11:42:11.813Z,45.30
2018-06-03T11:44:40.457Z,46.50
2018-06-03T11:47:09.158Z,46.70
2018-06-03T11:49:37.857Z,46.80
2018-06-03T11:52:06.515Z,46.20
2018-06-03T11:54:35.514Z,46.30
2018-06-03T11:57:04.376Z,44.20
2018-06-03T11:59:41.495Z,47.00
2018-06-03T12:02:10.580Z,47.40
2018-06-03T12:04:39.352Z,47.90
2018-06-03T12:07:08.048Z,47.20
2018-06-03T12:09:36.715Z,44.80
2018-06-03T12:12:05.546Z,43.60
2018-06-03T12:14:34.312Z,43.20
2018-06-03T12:17:03.018Z,42.70
2018-06-03T12:19:31.779Z,42.40
2018-06-03T12:22:00.459Z,43.40
2018-06-03T12:24:29.141Z,44.60
2018-06-03T12:26:57.856Z,44.80
2018-06-03T12:29:26.514Z,44.30
2018-06-03T12:31:55.194Z,43.10
2018-06-03T12:34:24.529Z,43.20
2018-06-03T12:36:53.185Z,43.30
2018-06-03T12:39:21.880Z,43.10
2018-06-03T12:41:50.569Z,43.20
2018-06-03T12:44:19.248Z,43.00
2018-06-03T12:46:48.515Z,43.80
2018-06-03T12:51:45.735Z,43.20
2018-06-03T12:54:14.448Z,42.70
2018-06-03T12:56:43.054Z,42.90
2018-06-03T13:01:39.973Z,42.80
2018-06-03T13:04:08.991Z,43.10
2018-06-03T13:06:37.664Z,43.70
2018-06-03T13:09:07.193Z,43.60
2018-06-03T13:11:35.813Z,42.50
2018-06-03T13:14:04.499Z,41.70
2018-06-03T13:16:33.249Z,41.30
2018-06-03T13:19:01.948Z,41.30
2018-06-03T13:21:30.665Z,42.00
2018-06-03T13:23:59.398Z,42.70
2018-06-03T13:26:28.117Z,42.70
2018-06-03T13:31:25.700Z,43.60
2018-06-03T13:33:54.392Z,43.10
2018-06-03T13:36:23.063Z,42.20
2018-06-03T13:38:51.697Z,42.20
2018-06-03T13:41:20.396Z,42.70
2018-06-03T13:43:49.117Z,43.10
2018-06-03T13:46:17.751Z,43.30
2018-06-03T13:48:46.421Z,43.70
2018-06-03T13:51:15.143Z,43.40
2018-06-03T13:53:43.841Z,44.20
2018-06-03T13:56:12.472Z,44.70
2018-06-03T13:58:41.353Z,44.60
2018-06-03T14:01:14.009Z,44.60
2018-06-03T14:03:42.731Z,43.70
2018-06-03T14:06:11.398Z,43.30
2018-06-03T14:08:40.098Z,42.30
2018-06-03T14:11:08.868Z,42.60
2018-06-03T14:13:37.603Z,42.80
2018-06-03T14:16:06.300Z,42.50
2018-06-03T14:18:34.953Z,42.20
2018-06-03T14:21:03.597Z,42.30
2018-06-03T14:23:32.261Z,41.40
2018-06-03T14:26:00.905Z,40.60
2018-06-03T14:30:58.517Z,40.10
2018-06-03T14:33:27.194Z,39.60
2018-06-03T14:35:55.868Z,39.60
2018-06-03T14:38:25.133Z,39.80
2018-06-03T14:40:53.821Z,39.10
2018-06-03T14:43:22.469Z,38.90
2018-06-03T14:45:51.129Z,39.30
2018-06-03T14:48:19.819Z,39.30
2018-06-03T14:50:48.533Z,39.10
2018-06-03T14:53:17.169Z,38.30
2018-06-03T14:58:14.105Z,38.60
2018-06-03T15:00:42.735Z,38.20
2018-06-03T15:03:11.416Z,38.20
2018-06-03T15:05:40.159Z,36.80
2018-06-03T15:08:10.663Z,37.50
2018-06-03T15:10:39.330Z,36.90
2018-06-03T15:13:08.769Z,38.60
2018-06-03T15:15:37.719Z,37.80
2018-06-03T15:18:06.441Z,37.60
2018-06-03T15:23:03.486Z,38.10
2018-06-03T15:25:33.186Z,38.30
2018-06-03T15:28:01.882Z,38.50
2018-06-03T15:30:30.565Z,38.90
2018-06-03T15:32:59.618Z,39.60
2018-06-03T15:35:28.519Z,39.20
2018-06-03T15:37:57.274Z,39.30
2018-06-03T15:40:25.948Z,39.50
2018-06-03T15:42:54.656Z,39.40
2018-06-03T15:45:23.357Z,39.10
2018-06-03T15:47:52.254Z,38.60
2018-06-03T15:50:21.394Z,37.80
2018-06-03T15:52:50.061Z,37.60
2018-06-03T15:55:18.684Z,37.50
2018-06-03T15:57:47.324Z,37.30
2018-06-03T16:00:15.989Z,37.70
2018-06-03T16:02:44.673Z,37.60
2018-06-03T16:05:13.419Z,38.10
2018-06-03T16:07:42.110Z,38.40
2018-06-03T16:10:10.771Z,38.50
2018-06-03T16:12:39.421Z,38.80
2018-06-03T16:15:08.123Z,38.60
2018-06-03T16:17:37.092Z,38.60
2018-06-03T16:20:05.721Z,38.40
2018-06-03T16:22:34.450Z,38.20
2018-06-03T16:25:03.125Z,38.50
2018-06-03T16:27:32.634Z,38.30
2018-06-03T16:30:01.309Z,39.20
2018-06-03T16:32:30.509Z,39.50
2018-06-03T16:34:59.215Z,40.00
2018-06-03T16:37:27.892Z,40.20
2018-06-03T16:39:56.573Z,40.30
2018-06-03T16:42:25.923Z,40.30
2018-06-03T16:44:54.622Z,40.30
2018-06-03T16:49:51.751Z,39.70
2018-06-03T16:52:20.473Z,38.60
2018-06-03T16:54:49.785Z,38.60
2018-06-03T16:57:18.476Z,39.50
2018-06-03T16:59:47.240Z,40.80
2018-06-03T17:02:16.497Z,40.90
2018-06-03T17:04:45.120Z,41.60
2018-06-03T17:07:13.983Z,40.80
2018-06-03T17:09:43.372Z,40.90
2018-06-03T17:12:12.106Z,40.80
2018-06-03T17:14:40.760Z,40.70
2018-06-03T17:17:09.445Z,41.00
2018-06-03T17:19:38.154Z,41.50
2018-06-03T17:22:06.853Z,41.80
2018-06-03T17:24:35.470Z,41.70
2018-06-03T17:27:04.238Z,41.30
2018-06-03T17:29:32.928Z,41.20
2018-06-03T17:32:01.624Z,41.20
2018-06-03T17:34:30.309Z,41.00
2018-06-03T17:39:27.325Z,41.60
2018-06-03T17:41:55.977Z,41.70
2018-06-03T17:44:24.865Z,41.60
2018-06-03T17:46:53.588Z,41.60
2018-06-03T17:49:22.193Z,42.20
2018-06-03T17:51:50.848Z,42.30
2018-06-03T17:54:19.529Z,42.90
2018-06-03T17:56:48.190Z,43.00
2018-06-03T17:59:16.823Z,43.80
2018-06-03T18:01:49.617Z,44.00
2018-06-03T18:04:18.836Z,44.10
2018-06-03T18:06:47.493Z,44.70
2018-06-03T18:09:16.357Z,44.80
2018-06-03T18:11:45.252Z,45.30
2018-06-03T18:14:13.898Z,45.40
2018-06-03T18:16:42.565Z,45.70
2018-06-03T18:19:11.458Z,46.10
2018-06-03T18:21:40.359Z,46.50
2018-06-03T18:24:09.123Z,46.70
2018-06-03T18:26:37.920Z,47.40
2018-06-03T18:29:06.643Z,47.40
2018-06-03T18:31:35.408Z,47.60
2018-06-03T18:34:04.778Z,47.90
2018-06-03T18:36:33.517Z,47.80
2018-06-03T18:39:02.223Z,48.10
2018-06-03T18:41:31.506Z,48.30
2018-06-03T18:44:00.155Z,48.40
2018-06-03T18:46:28.858Z,48.80
2018-06-03T18:48:57.620Z,49.10
2018-06-03T18:51:26.323Z,49.30
2018-06-03T18:53:55.087Z,49.50
2018-06-03T18:56:23.756Z,49.60
2018-06-03T18:58:52.613Z,49.60
2018-06-03T19:03:49.660Z,49.50
2018-06-03T19:08:46.805Z,49.50
2018-06-03T19:11:15.566Z,49.30
2018-06-03T19:13:44.391Z,49.50
2018-06-03T19:16:13.042Z,49.70
2018-06-03T19:18:41.819Z,49.90
2018-06-03T19:21:10.600Z,49.90
2018-06-03T19:23:39.321Z,50.00
2018-06-03T19:26:08.768Z,50.10
2018-06-03T19:31:05.899Z,50.30
2018-06-03T19:33:34.629Z,50.60
2018-06-03T19:36:04.154Z,50.60
2018-06-03T19:38:32.844Z,50.50
2018-06-03T19:41:01.575Z,50.50
2018-06-03T19:43:30.502Z,50.40
2018-06-03T19:46:00.007Z,50.50
2018-06-03T19:48:28.786Z,50.40
2018-06-03T19:53:26.352Z,50.40
2018-06-03T19:55:55.078Z,50.40
2018-06-03T19:58:23.808Z,50.30
2018-06-03T20:05:50.006Z,50.50
2018-06-03T20:08:18.661Z,50.60
2018-06-03T20:10:47.378Z,50.70
2018-06-03T20:13:16.057Z,50.60
2018-06-03T20:15:44.850Z,50.70
2018-06-03T20:18:13.529Z,50.70
2018-06-03T20:20:42.219Z,50.70
2018-06-03T20:23:10.952Z,50.60
2018-06-03T20:25:39.702Z,50.60
2018-06-03T20:30:36.794Z,50.60
2018-06-03T20:33:05.401Z,50.70
2018-06-03T20:35:34.321Z,50.70
2018-06-03T20:38:02.988Z,50.80
2018-06-03T20:40:31.700Z,50.90
2018-06-03T20:43:00.416Z,50.90
2018-06-03T20:47:57.324Z,50.90
2018-06-03T20:50:25.962Z,50.80
2018-06-03T20:55:22.905Z,50.90
2018-06-03T20:57:51.615Z,50.90
2018-06-03T21:00:20.360Z,50.80
2018-06-03T21:02:49.059Z,50.70
2018-06-03T21:05:18.361Z,50.80
2018-06-03T21:07:47.045Z,50.90
2018-06-03T21:10:15.787Z,50.40
2018-06-03T21:12:44.525Z,50.40
2018-06-03T21:15:16.121Z,50.60
2018-06-03T21:17:44.823Z,50.60
2018-06-03T21:20:13.557Z,50.80
2018-06-03T21:22:42.190Z,50.70
2018-06-03T21:25:10.916Z,50.60
2018-06-03T21:27:40.590Z,50.60
2018-06-03T21:30:09.306Z,50.80
2018-06-03T21:32:38.094Z,50.80
2018-06-03T21:35:06.837Z,50.60
2018-06-03T21:37:35.538Z,50.60
2018-06-03T21:42:32.611Z,50.40
2018-06-03T21:45:01.342Z,50.30
2018-06-03T21:47:30.001Z,50.60
2018-06-03T21:49:58.915Z,50.60
2018-06-03T21:52:27.850Z,50.60
2018-06-03T21:54:56.542Z,50.60
2018-06-03T21:57:25.257Z,50.60
2018-06-03T21:59:53.942Z,50.70
2018-06-03T22:02:22.648Z,50.80
2018-06-03T22:04:51.344Z,51.20
2018-06-03T22:07:19.997Z,51.50
2018-06-03T22:09:48.628Z,51.70
2018-06-03T22:12:17.279Z,51.80
2018-06-03T22:14:45.951Z,52.00
2018-06-03T22:17:14.571Z,52.70
2018-06-03T22:19:43.240Z,53.70
2018-06-03T22:22:11.893Z,54.10
2018-06-03T22:27:08.811Z,55.40
2018-06-03T22:29:44.084Z,56.20
2018-06-03T22:32:12.748Z,56.70
2018-06-03T22:34:41.386Z,57.60
2018-06-03T22:37:10.768Z,58.30
2018-06-03T22:39:39.439Z,58.80
2018-06-03T22:42:08.148Z,59.30
2018-06-03T22:44:36.889Z,59.70
2018-06-03T22:47:05.690Z,59.90
2018-06-03T22:49:34.364Z,60.30
2018-06-03T22:52:03.048Z,60.70
2018-06-03T22:54:31.658Z,61.20
2018-06-03T22:57:41.622Z,61.90
2018-06-03T23:00:10.729Z,62.00
2018-06-03T23:02:39.438Z,62.00
2018-06-03T23:05:08.116Z,62.20
2018-06-03T23:10:05.061Z,61.70
2018-06-03T23:12:33.702Z,61.60
2018-06-03T23:15:02.330Z,61.60
2018-06-03T23:17:30.973Z,61.80
2018-06-03T23:19:59.620Z,62.00
2018-06-03T23:22:28.283Z,62.70
2018-06-03T23:24:56.877Z,63.00
2018-06-03T23:27:25.598Z,62.80
2018-06-03T23:29:54.262Z,62.30
2018-06-03T23:34:51.262Z,62.20
2018-06-03T23:37:19.985Z,61.90
2018-06-03T23:39:48.681Z,61.40
2018-06-03T23:42:17.381Z,61.10
2018-06-03T23:44:46.053Z,60.50
2018-06-03T23:47:14.707Z,60.20
2018-06-03T23:49:43.317Z,59.90
2018-06-03T23:52:11.948Z,59.70
2018-06-03T23:54:40.684Z,60.70
2018-06-03T23:57:09.917Z,59.90
2018-06-03T23:59:39.368Z,59.80
